createdAt,value
2023-02-11T00:00:34.373Z,8.85
2023-02-11T00:03:26.314Z,8.84
2023-02-11T00:06:18.031Z,8.84
2023-02-11T00:09:09.997Z,8.84
2023-02-11T00:12:01.265Z,8.84
2023-02-11T00:14:52.828Z,8.83
2023-02-11T00:17:44.326Z,8.83
2023-02-11T00:20:35.444Z,8.83
2023-02-11T00:23:27.198Z,8.81
2023-02-11T00:26:20.437Z,8.81
2023-02-11T00:29:11.618Z,8.80
2023-02-11T00:32:05.708Z,8.81
2023-02-11T00:34:57.286Z,8.81
2023-02-11T00:37:48.498Z,8.82
2023-02-11T00:40:39.672Z,8.82
2023-02-11T00:43:31.396Z,8.84
2023-02-11T00:46:24.638Z,8.85
2023-02-11T00:49:16.372Z,8.87
2023-02-11T00:52:07.688Z,8.88
2023-02-11T00:54:58.874Z,8.88
2023-02-11T00:57:50.422Z,8.90
2023-02-11T01:00:41.708Z,8.91
2023-02-11T01:03:33.398Z,8.92
2023-02-11T01:06:25.184Z,8.93
2023-02-11T01:09:17.697Z,8.93
2023-02-11T01:12:10.471Z,8.92
2023-02-11T01:15:08.573Z,8.91
2023-02-11T01:18:30.086Z,8.90
2023-02-11T01:21:20.936Z,8.88
2023-02-11T01:24:12.791Z,8.86
2023-02-11T01:27:04.475Z,8.84
2023-02-11T01:29:58.989Z,8.81
2023-02-11T01:32:55.406Z,8.78
2023-02-11T01:35:48.330Z,8.75
2023-02-11T01:38:41.449Z,8.73
2023-02-11T01:41:33.689Z,8.74
2023-02-11T01:44:32.741Z,8.73
2023-02-11T01:47:25.554Z,8.73
2023-02-11T01:50:17.507Z,8.74
2023-02-11T01:53:25.798Z,8.75
2023-02-11T01:56:34.721Z,8.75
2023-02-11T01:59:33.341Z,8.76
2023-02-11T02:02:30.234Z,8.74
2023-02-11T02:05:29.334Z,8.72
2023-02-11T02:08:26.791Z,8.69
2023-02-11T02:11:24.514Z,8.65
2023-02-11T02:14:15.880Z,8.62
2023-02-11T02:17:07.178Z,8.60
2023-02-11T02:20:35.043Z,8.59
2023-02-11T02:23:37.430Z,8.57
2023-02-11T02:27:14.334Z,8.57
2023-02-11T02:30:27.443Z,8.56
2023-02-11T02:33:32.838Z,8.52
2023-02-11T02:36:35.488Z,8.50
2023-02-11T02:39:31.095Z,8.44
2023-02-11T02:42:27.530Z,8.40
2023-02-11T02:45:23.376Z,8.39
2023-02-11T02:48:29.409Z,8.36
2023-02-11T02:51:52.634Z,8.34
2023-02-11T02:55:10.976Z,8.32
2023-02-11T02:58:49.038Z,8.29
2023-02-11T03:01:51.612Z,8.25
2023-02-11T03:04:54.845Z,8.23
2023-02-11T03:07:53.461Z,8.22
2023-02-11T03:10:49.415Z,8.20
2023-02-11T03:13:42.741Z,8.19
2023-02-11T03:16:40.690Z,8.18
2023-02-11T03:19:37.936Z,8.19
2023-02-11T03:22:36.360Z,8.20
2023-02-11T03:25:33.666Z,8.19
2023-02-11T03:28:33.356Z,8.19
2023-02-11T03:31:38.264Z,8.20
2023-02-11T03:34:40.971Z,8.19
2023-02-11T03:37:40.418Z,8.18
2023-02-11T03:40:44.535Z,8.18
2023-02-11T03:43:42.206Z,8.16
2023-02-11T03:46:37.488Z,8.15
2023-02-11T03:49:32.905Z,8.13
2023-02-11T03:52:29.294Z,8.12
2023-02-11T03:55:26.012Z,8.12
2023-02-11T03:58:17.197Z,8.12
2023-02-11T04:01:13.217Z,8.11
2023-02-11T04:04:05.499Z,8.10
2023-02-11T04:06:57.061Z,8.09
2023-02-11T04:09:48.682Z,8.08
2023-02-11T04:12:39.918Z,8.08
2023-02-11T04:15:30.805Z,8.08
2023-02-11T04:18:23.337Z,8.09
2023-02-11T04:21:16.469Z,8.08
2023-02-11T04:24:08.498Z,8.08
2023-02-11T04:27:00.124Z,8.08
2023-02-11T04:29:55.554Z,8.07
2023-02-11T04:32:46.743Z,8.07
2023-02-11T04:35:38.438Z,8.07
2023-02-11T04:38:30.090Z,8.06
2023-02-11T04:41:29.455Z,8.07
2023-02-11T04:44:20.753Z,8.07
2023-02-11T04:47:12.905Z,8.07
2023-02-11T04:50:04.647Z,8.06
2023-02-11T04:52:56.401Z,8.05
2023-02-11T04:55:50.392Z,8.03
2023-02-11T04:58:41.848Z,8.03
2023-02-11T05:01:33.736Z,8.02
2023-02-11T05:04:25.388Z,8.00
2023-02-11T05:07:16.393Z,7.98
2023-02-11T05:10:09.427Z,7.97
2023-02-11T05:13:00.923Z,7.97
2023-02-11T05:15:52.166Z,7.97
2023-02-11T05:18:45.242Z,7.98
2023-02-11T05:21:36.980Z,7.99
2023-02-11T05:24:28.495Z,7.99
2023-02-11T05:27:19.784Z,7.99
2023-02-11T05:30:13.750Z,7.99
2023-02-11T05:33:05.331Z,7.98
2023-02-11T05:36:02.478Z,7.97
2023-02-11T05:38:54.283Z,7.96
2023-02-11T05:41:45.636Z,7.95
2023-02-11T05:44:37.365Z,7.95
2023-02-11T05:47:28.717Z,7.94
2023-02-11T05:50:21.149Z,7.94
2023-02-11T05:53:17.067Z,7.93
2023-02-11T05:56:10.739Z,7.90
2023-02-11T05:59:03.332Z,7.86
2023-02-11T06:01:55.525Z,7.82
2023-02-11T06:04:46.696Z,7.79
2023-02-11T06:07:40.409Z,7.76
2023-02-11T06:10:31.605Z,7.74
2023-02-11T06:13:22.715Z,7.71
2023-02-11T06:16:14.190Z,7.70
2023-02-11T06:19:06.669Z,7.69
2023-02-11T06:21:58.034Z,7.69
2023-02-11T06:25:00.928Z,7.67
2023-02-11T06:27:52.569Z,7.68
2023-02-11T06:30:43.347Z,7.67
2023-02-11T06:33:33.819Z,7.67
2023-02-11T06:36:25.407Z,7.68
2023-02-11T06:39:17.462Z,7.74
2023-02-11T06:42:08.255Z,7.88
2023-02-11T06:44:59.661Z,8.02
2023-02-11T06:47:52.917Z,8.19
2023-02-11T06:50:43.555Z,8.45
2023-02-11T06:53:36.568Z,8.69
2023-02-11T06:56:28.138Z,9.00
2023-02-11T06:59:21.484Z,9.38
2023-02-11T07:02:14.404Z,9.70
2023-02-11T07:05:06.768Z,9.97
2023-02-11T07:07:58.992Z,10.22
2023-02-11T07:10:50.417Z,10.48
2023-02-11T07:13:40.930Z,10.64
2023-02-11T07:16:32.662Z,10.72
2023-02-11T07:19:26.229Z,10.77
2023-02-11T07:22:16.792Z,10.89
2023-02-11T07:25:08.690Z,11.00
2023-02-11T07:28:00.448Z,11.12
2023-02-11T07:30:51.070Z,11.23
2023-02-11T07:33:42.150Z,11.26
2023-02-11T07:36:34.108Z,11.32
2023-02-11T07:39:27.692Z,11.36
2023-02-11T07:42:18.892Z,11.34
2023-02-11T07:45:11.544Z,11.40
2023-02-11T07:48:02.828Z,11.47
2023-02-11T07:50:54.290Z,11.53
2023-02-11T07:53:45.986Z,11.60
2023-02-11T07:56:37.954Z,11.69
2023-02-11T07:59:29.124Z,11.78
2023-02-11T08:02:20.371Z,11.88
2023-02-11T08:05:11.768Z,12.01
2023-02-11T08:08:04.139Z,12.18
2023-02-11T08:10:55.129Z,12.36
2023-02-11T08:13:46.257Z,12.55
2023-02-11T08:16:41.310Z,12.71
2023-02-11T08:19:34.856Z,12.84
2023-02-11T08:22:25.831Z,12.96
2023-02-11T08:25:16.568Z,13.11
2023-02-11T08:28:09.445Z,13.25
2023-02-11T08:31:08.854Z,13.35
2023-02-11T08:34:00.189Z,13.39
2023-02-11T08:36:51.494Z,13.42
2023-02-11T08:39:41.781Z,13.46
2023-02-11T08:42:32.235Z,13.53
2023-02-11T08:45:23.389Z,13.65
2023-02-11T08:48:14.521Z,13.78
2023-02-11T08:51:09.991Z,13.92
2023-02-11T08:54:02.293Z,14.09
2023-02-11T08:56:55.487Z,14.26
2023-02-11T08:59:46.170Z,14.40
2023-02-11T09:02:36.620Z,14.62
2023-02-11T09:05:27.775Z,15.47
2023-02-11T09:08:18.700Z,17.13
2023-02-11T09:11:09.988Z,18.92
2023-02-11T09:14:01.116Z,20.63
2023-02-11T09:16:53.390Z,22.10
2023-02-11T09:19:43.933Z,23.13
2023-02-11T09:22:34.507Z,23.51
2023-02-11T09:25:26.140Z,23.53
2023-02-11T09:28:17.842Z,23.51
2023-02-11T09:31:10.908Z,23.41
2023-02-11T09:34:04.521Z,23.16
2023-02-11T09:36:55.492Z,22.70
2023-02-11T09:39:47.632Z,22.14
2023-02-11T09:42:49.764Z,21.63
2023-02-11T09:45:40.999Z,21.23
2023-02-11T09:48:39.875Z,20.87
2023-02-11T09:51:43.569Z,20.53
2023-02-11T09:54:44.334Z,20.19
2023-02-11T09:57:38.153Z,19.89
2023-02-11T10:00:35.980Z,19.62
2023-02-11T10:03:52.123Z,19.44
2023-02-11T10:06:50.892Z,19.24
2023-02-11T10:10:02.545Z,19.07
2023-02-11T10:13:09.314Z,18.94
2023-02-11T10:16:07.718Z,18.85
2023-02-11T10:19:14.267Z,18.79
2023-02-11T10:22:14.127Z,18.73
2023-02-11T10:25:19.483Z,18.69
2023-02-11T10:28:19.002Z,18.64
2023-02-11T10:31:18.407Z,18.69
2023-02-11T10:34:11.627Z,18.74
2023-02-11T10:37:02.319Z,18.74
2023-02-11T10:39:53.535Z,18.77
2023-02-11T10:42:48.264Z,18.76
2023-02-11T10:45:40.896Z,18.73
2023-02-11T10:48:44.125Z,18.60
2023-02-11T10:51:35.543Z,18.55
2023-02-11T10:54:28.959Z,18.50
2023-02-11T10:57:22.783Z,18.46
2023-02-11T11:00:34.618Z,18.46
2023-02-11T11:03:34.991Z,18.42
2023-02-11T11:06:34.974Z,18.32
2023-02-11T11:09:44.932Z,18.26
2023-02-11T11:12:49.723Z,18.10
2023-02-11T11:15:40.658Z,17.94
2023-02-11T11:18:31.699Z,17.94
2023-02-11T11:21:26.416Z,17.96
2023-02-11T11:24:24.549Z,17.95
2023-02-11T11:27:26.187Z,17.96
2023-02-11T11:30:21.648Z,18.00
2023-02-11T11:33:22.839Z,17.97
2023-02-11T11:36:16.933Z,17.94
2023-02-11T11:39:22.584Z,17.96
2023-02-11T11:42:29.893Z,18.08
2023-02-11T11:45:28.005Z,18.11
2023-02-11T11:48:23.868Z,18.18
2023-02-11T11:51:15.903Z,18.20
2023-02-11T11:54:16.500Z,18.18
2023-02-11T11:57:18.275Z,18.03
2023-02-11T12:00:18.918Z,17.95
2023-02-11T12:03:42.540Z,17.98
2023-02-11T12:06:45.964Z,17.98
2023-02-11T12:09:50.299Z,18.02
2023-02-11T12:12:51.740Z,17.98
2023-02-11T12:15:50.967Z,17.90
2023-02-11T12:18:56.172Z,17.81
2023-02-11T12:22:05.194Z,17.69
2023-02-11T12:25:19.145Z,17.54
2023-02-11T12:28:25.981Z,17.33
2023-02-11T12:31:34.311Z,17.05
2023-02-11T12:34:54.532Z,17.02
2023-02-11T12:37:59.879Z,17.01
2023-02-11T12:41:02.470Z,17.05
2023-02-11T12:43:53.330Z,16.98
2023-02-11T12:46:51.588Z,16.92
2023-02-11T12:50:05.812Z,16.93
2023-02-11T12:53:13.193Z,16.89
2023-02-11T12:56:13.739Z,16.81
2023-02-11T12:59:14.435Z,16.71
2023-02-11T13:02:14.372Z,16.68
2023-02-11T13:05:14.509Z,16.76
2023-02-11T13:08:12.479Z,16.60
2023-02-11T13:11:08.058Z,16.46
2023-02-11T13:14:05.907Z,16.43
2023-02-11T13:16:58.748Z,16.39
2023-02-11T13:19:53.819Z,16.29
2023-02-11T13:22:50.594Z,16.24
2023-02-11T13:25:50.244Z,16.10
2023-02-11T13:28:52.178Z,15.91
2023-02-11T13:31:42.695Z,15.80
2023-02-11T13:34:58.172Z,15.78
2023-02-11T13:37:53.712Z,15.69
2023-02-11T13:40:47.375Z,15.52
2023-02-11T13:43:39.461Z,15.48
2023-02-11T13:46:32.054Z,15.51
2023-02-11T13:49:26.179Z,15.58
2023-02-11T13:52:27.183Z,15.68
2023-02-11T13:55:27.562Z,15.72
2023-02-11T13:58:36.497Z,15.78
2023-02-11T14:02:23.790Z,15.81
2023-02-11T14:05:51.094Z,15.69
2023-02-11T14:09:11.282Z,15.65
2023-02-11T14:12:41.213Z,15.60
2023-02-11T14:15:41.642Z,15.63
2023-02-11T14:18:59.723Z,15.64
2023-02-11T14:21:51.714Z,15.65
2023-02-11T14:24:54.585Z,15.67
2023-02-11T14:27:55.544Z,15.64
2023-02-11T14:30:59.466Z,15.58
2023-02-11T14:34:07.356Z,15.48
2023-02-11T14:37:19.842Z,15.33
2023-02-11T14:40:23.170Z,15.15
2023-02-11T14:43:19.709Z,14.95
2023-02-11T14:46:11.882Z,14.84
2023-02-11T14:49:06.011Z,14.78
2023-02-11T14:51:59.740Z,14.70
2023-02-11T14:54:52.868Z,14.59
2023-02-11T14:57:45.978Z,14.52
2023-02-11T15:00:36.985Z,14.39
2023-02-11T15:03:33.891Z,14.26
2023-02-11T15:06:26.612Z,14.21
2023-02-11T15:09:24.209Z,14.21
2023-02-11T15:12:24.138Z,14.18
2023-02-11T15:15:19.270Z,14.12
2023-02-11T15:18:11.218Z,14.04
2023-02-11T15:21:02.299Z,14.01
2023-02-11T15:24:06.293Z,14.00
2023-02-11T15:27:16.486Z,13.97
2023-02-11T15:30:27.699Z,13.93
2023-02-11T15:33:26.237Z,13.86
2023-02-11T15:36:18.401Z,13.78
2023-02-11T15:39:35.901Z,13.71
2023-02-11T15:42:43.894Z,13.64
2023-02-11T15:45:44.626Z,13.55
2023-02-11T15:48:39.383Z,13.51
2023-02-11T15:51:33.793Z,13.47
2023-02-11T15:54:28.016Z,13.45
2023-02-11T15:57:19.189Z,13.46
2023-02-11T16:00:17.343Z,13.42
2023-02-11T16:03:08.389Z,13.39
2023-02-11T16:06:00.106Z,13.38
2023-02-11T16:09:04.288Z,13.37
2023-02-11T16:12:00.864Z,13.36
2023-02-11T16:14:52.100Z,13.34
2023-02-11T16:17:45.591Z,13.31
2023-02-11T16:20:36.900Z,13.30
2023-02-11T16:23:30.391Z,13.30
2023-02-11T16:26:29.181Z,13.31
2023-02-11T16:29:26.131Z,13.28
2023-02-11T16:32:22.972Z,13.26
2023-02-11T16:35:15.633Z,13.24
2023-02-11T16:38:06.549Z,13.23
2023-02-11T16:40:57.645Z,13.25
2023-02-11T16:43:48.560Z,13.25
2023-02-11T16:46:40.355Z,13.25
2023-02-11T16:49:32.343Z,13.20
2023-02-11T16:52:24.596Z,13.17
2023-02-11T16:55:16.018Z,13.17
2023-02-11T16:58:06.717Z,13.16
2023-02-11T17:00:57.585Z,13.13
2023-02-11T17:03:48.034Z,13.09
2023-02-11T17:06:38.739Z,13.05
2023-02-11T17:09:31.351Z,13.00
2023-02-11T17:12:22.599Z,12.96
2023-02-11T17:15:14.939Z,12.93
2023-02-11T17:18:06.977Z,12.88
2023-02-11T17:20:57.361Z,12.84
2023-02-11T17:23:48.380Z,12.83
2023-02-11T17:26:39.648Z,12.80
2023-02-11T17:29:30.506Z,12.75
2023-02-11T17:32:21.179Z,12.72
2023-02-11T17:35:13.708Z,12.69
2023-02-11T17:38:04.803Z,12.66
2023-02-11T17:41:02.706Z,12.63
2023-02-11T17:43:53.581Z,12.61
2023-02-11T17:46:44.334Z,12.74
2023-02-11T17:49:35.897Z,12.78
2023-02-11T17:52:28.537Z,12.72
2023-02-11T17:55:20.399Z,12.67
2023-02-11T17:58:13.084Z,12.64
2023-02-11T18:01:03.987Z,12.60
2023-02-11T18:03:55.225Z,12.58
2023-02-11T18:06:47.194Z,12.56
2023-02-11T18:09:44.398Z,12.51
2023-02-11T18:12:35.197Z,12.47
2023-02-11T18:15:26.565Z,12.43
2023-02-11T18:18:17.588Z,12.41
2023-02-11T18:21:10.349Z,12.39
2023-02-11T18:24:06.527Z,12.33
2023-02-11T18:26:58.505Z,12.29
2023-02-11T18:29:49.261Z,12.29
2023-02-11T18:32:40.675Z,12.29
2023-02-11T18:35:31.791Z,12.28
2023-02-11T18:38:23.409Z,12.25
2023-02-11T18:41:14.614Z,12.22
2023-02-11T18:44:06.205Z,12.21
2023-02-11T18:46:57.446Z,12.20
2023-02-11T18:49:48.669Z,12.18
2023-02-11T18:52:39.694Z,12.15
2023-02-11T18:55:31.095Z,12.12
2023-02-11T18:58:22.790Z,12.09
2023-02-11T19:01:19.586Z,12.06
2023-02-11T19:04:12.112Z,12.04
2023-02-11T19:07:04.973Z,12.01
2023-02-11T19:09:56.398Z,11.99
2023-02-11T19:12:48.219Z,11.96
2023-02-11T19:15:41.848Z,11.93
2023-02-11T19:18:32.745Z,11.90
2023-02-11T19:21:23.515Z,11.86
2023-02-11T19:24:25.124Z,11.84
2023-02-11T19:27:16.311Z,11.81
2023-02-11T19:30:08.752Z,11.81
2023-02-11T19:32:59.413Z,11.81
2023-02-11T19:35:57.817Z,11.82
2023-02-11T19:38:52.964Z,11.80
2023-02-11T19:41:45.418Z,11.78
2023-02-11T19:44:36.565Z,11.76
2023-02-11T19:47:28.046Z,11.75
2023-02-11T19:50:24.123Z,11.74
2023-02-11T19:53:15.425Z,11.74
2023-02-11T19:56:07.865Z,11.74
2023-02-11T19:59:09.307Z,11.76
2023-02-11T20:02:01.618Z,11.75
2023-02-11T20:04:52.048Z,11.74
2023-02-11T20:07:44.278Z,11.72
2023-02-11T20:10:36.041Z,11.71
2023-02-11T20:13:30.761Z,11.71
2023-02-11T20:16:27.016Z,11.70
2023-02-11T20:19:25.619Z,11.68
2023-02-11T20:22:16.287Z,11.66
2023-02-11T20:25:08.143Z,11.62
2023-02-11T20:27:59.090Z,11.59
2023-02-11T20:30:59.275Z,11.56
2023-02-11T20:33:50.705Z,11.54
2023-02-11T20:36:42.268Z,11.52
2023-02-11T20:39:33.451Z,11.48
2023-02-11T20:42:27.615Z,11.46
2023-02-11T20:45:19.557Z,11.45
2023-02-11T20:48:10.785Z,11.45
2023-02-11T20:51:05.713Z,11.44
2023-02-11T20:53:59.781Z,11.44
2023-02-11T20:56:57.155Z,11.44
2023-02-11T20:59:48.471Z,11.42
2023-02-11T21:02:40.397Z,11.41
2023-02-11T21:05:32.888Z,11.40
2023-02-11T21:08:24.124Z,11.37
2023-02-11T21:11:14.890Z,11.35
2023-02-11T21:14:06.484Z,11.34
2023-02-11T21:16:58.090Z,11.32
2023-02-11T21:19:50.029Z,11.30
2023-02-11T21:22:41.099Z,11.29
2023-02-11T21:25:31.750Z,11.27
2023-02-11T21:28:26.689Z,11.25
2023-02-11T21:31:24.370Z,11.23
2023-02-11T21:34:16.583Z,11.21
2023-02-11T21:37:08.309Z,11.18
2023-02-11T21:40:00.062Z,11.15
2023-02-11T21:42:51.983Z,11.12
2023-02-11T21:45:48.030Z,11.09
2023-02-11T21:48:39.917Z,11.07
2023-02-11T21:51:38.004Z,11.05
2023-02-11T21:54:32.556Z,11.03
2023-02-11T21:57:24.613Z,11.02
2023-02-11T22:00:19.896Z,10.99
2023-02-11T22:03:11.784Z,10.95
2023-02-11T22:06:13.033Z,10.93
2023-02-11T22:09:06.880Z,10.90
2023-02-11T22:11:57.822Z,10.88
2023-02-11T22:14:49.650Z,10.86
2023-02-11T22:17:41.369Z,10.85
2023-02-11T22:20:32.549Z,10.84
2023-02-11T22:23:24.833Z,10.84
2023-02-11T22:26:18.433Z,10.81
2023-02-11T22:29:11.029Z,10.80
2023-02-11T22:32:01.957Z,10.77
2023-02-11T22:34:53.548Z,10.75
2023-02-11T22:37:45.136Z,10.74
2023-02-11T22:40:36.345Z,10.72
2023-02-11T22:43:28.838Z,10.71
2023-02-11T22:46:21.056Z,10.70
2023-02-11T22:49:15.165Z,10.69
2023-02-11T22:52:06.705Z,10.69
2023-02-11T22:55:00.709Z,10.70
2023-02-11T22:57:51.814Z,10.68
2023-02-11T23:00:44.393Z,10.67
2023-02-11T23:03:36.575Z,10.66
2023-02-11T23:06:28.004Z,10.65
2023-02-11T23:09:20.111Z,10.63
2023-02-11T23:12:11.504Z,10.61
2023-02-11T23:15:04.927Z,10.57
2023-02-11T23:17:56.118Z,10.54
2023-02-11T23:20:47.315Z,10.51
2023-02-11T23:23:39.268Z,10.49
2023-02-11T23:26:30.445Z,10.47
2023-02-11T23:29:21.369Z,10.46
2023-02-11T23:32:12.656Z,10.45
2023-02-11T23:35:04.312Z,10.43
2023-02-11T23:37:56.794Z,10.41
2023-02-11T23:40:48.552Z,10.39
2023-02-11T23:43:40.170Z,10.38
2023-02-11T23:46:31.415Z,10.37
2023-02-11T23:49:22.792Z,10.37
2023-02-11T23:52:14.462Z,10.37
2023-02-11T23:55:06.578Z,10.38
2023-02-11T23:57:57.191Z,10.39
